createdAt,value
2023-01-29T00:02:33.434Z,100943.07
2023-01-29T00:07:36.343Z,100930.85
2023-01-29T00:12:39.802Z,100926.29
2023-01-29T00:17:42.551Z,100922.85
2023-01-29T00:22:45.457Z,100911.55
2023-01-29T00:27:48.463Z,100914.70
2023-01-29T00:32:51.373Z,100914.52
2023-01-29T00:37:56.120Z,100919.71
2023-01-29T00:43:17.451Z,100911.61
2023-01-29T00:48:20.251Z,100912.14
2023-01-29T00:53:23.153Z,100915.74
2023-01-29T00:58:28.408Z,100917.05
2023-01-29T01:03:34.087Z,100919.13
2023-01-29T01:08:55.534Z,100917.36
2023-01-29T01:14:02.312Z,100902.95
2023-01-29T01:19:05.522Z,100892.95
2023-01-29T01:24:08.376Z,100891.97
2023-01-29T01:29:11.333Z,100889.01
2023-01-29T01:34:15.068Z,100889.98
2023-01-29T01:39:17.954Z,100897.48
2023-01-29T01:44:58.668Z,100898.02
2023-01-29T01:50:09.750Z,100901.55
2023-01-29T01:55:14.896Z,100895.34
2023-01-29T02:00:20.367Z,100898.55
2023-01-29T02:05:42.823Z,100882.20
2023-01-29T02:10:48.701Z,100869.26
2023-01-29T02:15:51.701Z,100868.06
2023-01-29T02:21:25.353Z,100861.73
2023-01-29T02:26:49.322Z,100845.74
2023-01-29T02:32:04.083Z,100842.90
2023-01-29T02:37:11.877Z,100831.35
2023-01-29T02:42:36.892Z,100820.73
2023-01-29T02:47:50.195Z,100819.87
2023-01-29T02:53:06.711Z,100824.33
2023-01-29T02:58:17.713Z,100821.70
2023-01-29T03:03:37.099Z,100813.36
2023-01-29T03:08:43.375Z,100801.11
2023-01-29T03:13:50.787Z,100801.62
2023-01-29T03:19:07.617Z,100798.31
2023-01-29T03:24:32.230Z,100790.70
2023-01-29T03:29:57.460Z,100789.48
2023-01-29T03:35:05.502Z,100783.27
2023-01-29T03:40:10.655Z,100772.91
2023-01-29T03:45:32.017Z,100770.27
2023-01-29T03:50:41.125Z,100766.13
2023-01-29T03:55:55.504Z,100772.84
2023-01-29T04:01:27.807Z,100772.05
2023-01-29T04:06:35.095Z,100765.91
2023-01-29T04:11:44.332Z,100749.96
2023-01-29T04:16:53.643Z,100733.27
2023-01-29T04:22:10.828Z,100727.75
2023-01-29T04:27:26.779Z,100723.61
2023-01-29T04:33:03.851Z,100712.80
2023-01-29T04:38:16.287Z,100710.55
2023-01-29T04:43:38.437Z,100701.65
2023-01-29T04:49:16.051Z,100689.30
2023-01-29T04:54:25.817Z,100701.19
2023-01-29T04:59:36.209Z,100699.69
2023-01-29T05:04:41.961Z,100691.92
2023-01-29T05:09:46.960Z,100688.86
2023-01-29T05:14:51.810Z,100699.36
2023-01-29T05:19:56.875Z,100691.60
2023-01-29T05:24:59.722Z,100678.08
2023-01-29T05:30:02.850Z,100676.33
2023-01-29T05:35:06.346Z,100677.08
2023-01-29T05:40:09.747Z,100685.52
2023-01-29T05:45:12.576Z,100694.46
2023-01-29T05:50:16.647Z,100689.88
2023-01-29T05:55:19.604Z,100668.76
2023-01-29T06:00:23.059Z,100663.11
2023-01-29T06:05:25.924Z,100667.23
2023-01-29T06:10:28.820Z,100654.17
2023-01-29T06:15:31.629Z,100659.21
2023-01-29T06:20:34.538Z,100666.95
2023-01-29T06:25:37.435Z,100658.24
2023-01-29T06:30:40.259Z,100662.08
2023-01-29T06:35:43.338Z,100665.56
2023-01-29T06:40:46.138Z,100669.23
2023-01-29T06:45:52.860Z,100659.45
2023-01-29T06:50:55.843Z,100666.23
2023-01-29T06:55:58.846Z,100668.98
2023-01-29T07:01:11.123Z,100659.38
2023-01-29T07:06:15.607Z,100664.05
2023-01-29T07:11:19.127Z,100666.29
2023-01-29T07:16:21.958Z,100666.70
2023-01-29T07:21:25.495Z,100672.01
2023-01-29T07:26:28.346Z,100676.65
2023-01-29T07:31:31.632Z,100673.73
2023-01-29T07:36:34.664Z,100665.17
2023-01-29T07:41:37.570Z,100650.63
2023-01-29T07:46:40.476Z,100639.10
2023-01-29T07:51:43.262Z,100623.08
2023-01-29T07:56:46.076Z,100630.84
2023-01-29T08:01:48.984Z,100627.45
2023-01-29T08:06:51.880Z,100625.80
2023-01-29T08:11:54.653Z,100619.78
2023-01-29T08:16:57.589Z,100625.42
2023-01-29T08:22:00.384Z,100632.93
2023-01-29T08:27:03.395Z,100622.09
2023-01-29T08:32:10.313Z,100611.94
2023-01-29T08:37:13.187Z,100611.27
2023-01-29T08:42:16.251Z,100601.88
2023-01-29T08:47:19.127Z,100596.07
2023-01-29T08:52:22.003Z,100588.90
2023-01-29T08:57:25.013Z,100589.10
2023-01-29T09:02:27.883Z,100588.46
2023-01-29T09:07:30.824Z,100590.23
2023-01-29T09:12:33.822Z,100586.42
2023-01-29T09:17:36.745Z,100603.39
2023-01-29T09:22:39.636Z,100605.09
2023-01-29T09:27:42.539Z,100611.92
2023-01-29T09:32:54.220Z,100601.15
2023-01-29T09:37:57.981Z,100590.63
2023-01-29T09:43:14.287Z,100588.33
2023-01-29T09:48:17.931Z,100579.52
2023-01-29T09:53:32.652Z,100580.72
2023-01-29T09:58:39.220Z,100576.66
2023-01-29T10:04:18.483Z,100569.36
2023-01-29T10:09:49.491Z,100565.70
2023-01-29T10:15:22.809Z,100561.77
2023-01-29T10:20:31.555Z,100552.13
2023-01-29T10:25:40.511Z,100554.00
2023-01-29T10:30:49.143Z,100545.17
2023-01-29T10:35:57.361Z,100537.20
2023-01-29T10:41:24.329Z,100520.58
2023-01-29T10:47:08.033Z,100508.31
2023-01-29T10:52:34.135Z,100498.86
2023-01-29T10:57:57.622Z,100497.61
2023-01-29T11:03:27.849Z,100489.33
2023-01-29T11:08:52.889Z,100479.83
2023-01-29T11:14:00.399Z,100478.61
2023-01-29T11:19:03.505Z,100468.11
2023-01-29T11:24:18.755Z,100457.43
2023-01-29T11:29:27.744Z,100449.86
2023-01-29T11:34:34.258Z,100447.46
2023-01-29T11:39:44.668Z,100433.33
2023-01-29T11:44:47.822Z,100440.60
2023-01-29T11:49:54.206Z,100441.99
2023-01-29T11:55:03.869Z,100431.29
2023-01-29T12:00:28.659Z,100428.17
2023-01-29T12:05:31.688Z,100416.94
2023-01-29T12:10:41.167Z,100407.27
2023-01-29T12:15:44.157Z,100405.17
2023-01-29T12:20:53.137Z,100402.04
2023-01-29T12:26:13.048Z,100391.52
2023-01-29T12:31:29.460Z,100388.40
2023-01-29T12:36:38.681Z,100382.89
2023-01-29T12:41:57.047Z,100389.11
2023-01-29T12:47:03.072Z,100383.92
2023-01-29T12:52:17.604Z,100393.05
2023-01-29T12:57:31.149Z,100412.54
2023-01-29T13:02:44.805Z,100413.20
2023-01-29T13:07:53.668Z,100394.38
2023-01-29T13:13:22.766Z,100379.73
2023-01-29T13:18:46.238Z,100373.35
2023-01-29T13:23:51.518Z,100353.50
2023-01-29T13:28:55.155Z,100342.82
2023-01-29T13:34:13.816Z,100350.08
2023-01-29T13:39:30.775Z,100339.38
2023-01-29T13:44:39.373Z,100338.34
2023-01-29T13:49:46.575Z,100339.88
2023-01-29T13:55:14.125Z,100329.00
2023-01-29T14:00:24.473Z,100326.56
2023-01-29T14:05:30.231Z,100326.75
2023-01-29T14:10:35.195Z,100316.93
2023-01-29T14:15:41.900Z,100323.98
2023-01-29T14:20:47.418Z,100313.61
2023-01-29T14:25:50.752Z,100308.43
2023-01-29T14:30:55.257Z,100308.95
2023-01-29T14:35:59.123Z,100301.35
2023-01-29T14:41:33.025Z,100298.41
2023-01-29T14:46:35.933Z,100290.83
2023-01-29T14:51:42.012Z,100289.61
2023-01-29T14:56:57.574Z,100304.62
2023-01-29T15:02:22.382Z,100304.80
2023-01-29T15:07:39.768Z,100300.13
2023-01-29T15:12:52.090Z,100297.37
2023-01-29T15:18:00.040Z,100301.48
2023-01-29T15:23:04.971Z,100299.43
2023-01-29T15:28:11.762Z,100291.67
2023-01-29T15:33:15.134Z,100275.80
2023-01-29T15:38:23.094Z,100266.48
2023-01-29T15:43:31.489Z,100251.84
2023-01-29T15:48:41.043Z,100254.08
2023-01-29T15:53:54.044Z,100251.32
2023-01-29T15:59:00.884Z,100252.52
2023-01-29T16:04:04.817Z,100255.29
2023-01-29T16:09:08.470Z,100243.92
2023-01-29T16:14:17.609Z,100243.73
2023-01-29T16:19:27.085Z,100236.15
2023-01-29T16:24:32.735Z,100219.94
2023-01-29T16:29:35.963Z,100203.73
2023-01-29T16:34:40.188Z,100190.61
2023-01-29T16:39:47.520Z,100182.17
2023-01-29T16:44:50.410Z,100175.45
2023-01-29T16:49:58.509Z,100176.82
2023-01-29T16:55:19.765Z,100173.02
2023-01-29T17:00:29.678Z,100175.44
2023-01-29T17:05:36.918Z,100175.96
2023-01-29T17:10:47.835Z,100178.04
2023-01-29T17:15:50.777Z,100180.79
2023-01-29T17:20:53.835Z,100182.86
2023-01-29T17:25:56.942Z,100174.23
2023-01-29T17:31:06.315Z,100180.95
2023-01-29T17:36:12.786Z,100178.88
2023-01-29T17:41:25.289Z,100175.95
2023-01-29T17:46:28.224Z,100159.73
2023-01-29T17:51:31.131Z,100146.80
2023-01-29T17:56:33.923Z,100137.48
2023-01-29T18:01:36.771Z,100126.11
2023-01-29T18:06:41.149Z,100118.69
2023-01-29T18:11:44.067Z,100110.91
2023-01-29T18:16:47.513Z,100108.16
2023-01-29T18:21:51.143Z,100097.98
2023-01-29T18:26:54.009Z,100084.39
2023-01-29T18:31:57.059Z,100076.27
2023-01-29T18:37:00.435Z,100061.96
2023-01-29T18:42:03.639Z,100056.09
2023-01-29T18:47:06.660Z,100043.33
2023-01-29T18:52:10.193Z,100034.20
2023-01-29T18:57:15.956Z,100025.23
2023-01-29T19:02:36.653Z,100007.47
2023-01-29T19:07:39.452Z,99988.32
2023-01-29T19:12:42.464Z,99974.34
2023-01-29T19:17:45.363Z,99980.92
2023-01-29T19:22:48.888Z,99970.39
2023-01-29T19:27:51.689Z,99969.17
2023-01-29T19:32:54.483Z,99964.17
2023-01-29T19:37:57.237Z,99959.34
2023-01-29T19:43:00.105Z,99951.57
2023-01-29T19:48:03.097Z,99946.23
2023-01-29T19:53:06.403Z,99942.94
2023-01-29T19:58:09.210Z,99939.49
2023-01-29T20:03:12.008Z,99936.91
2023-01-29T20:08:14.911Z,99928.80
2023-01-29T20:13:17.824Z,99912.24
2023-01-29T20:18:20.724Z,99910.02
2023-01-29T20:23:37.296Z,99905.71
2023-01-29T20:28:41.061Z,99899.67
2023-01-29T20:33:44.527Z,99897.94
2023-01-29T20:38:48.204Z,99882.23
2023-01-29T20:43:51.206Z,99867.25
2023-01-29T20:48:54.732Z,99855.88
2023-01-29T20:53:57.637Z,99840.71
2023-01-29T20:59:02.343Z,99824.50
2023-01-29T21:04:05.725Z,99813.98
2023-01-29T21:09:09.436Z,99804.48
2023-01-29T21:14:12.725Z,99792.23
2023-01-29T21:19:15.743Z,99795.31
2023-01-29T21:24:19.052Z,99774.63
2023-01-29T21:29:22.067Z,99774.10
2023-01-29T21:34:25.670Z,99769.42
2023-01-29T21:39:28.501Z,99768.39
2023-01-29T21:44:33.565Z,99758.37
2023-01-29T21:49:36.837Z,99756.63
2023-01-29T21:54:40.200Z,99744.02
2023-01-29T21:59:43.775Z,99734.55
2023-01-29T22:04:52.459Z,99722.98
2023-01-29T22:09:55.413Z,99721.79
2023-01-29T22:14:58.314Z,99713.33
2023-01-29T22:20:01.529Z,99702.65
2023-01-29T22:25:05.475Z,99697.99
2023-01-29T22:30:09.380Z,99688.50
2023-01-29T22:35:12.292Z,99673.15
2023-01-29T22:40:15.441Z,99656.94
2023-01-29T22:45:18.609Z,99659.86
2023-01-29T22:50:21.513Z,99652.80
2023-01-29T22:55:24.412Z,99640.71
2023-01-29T23:00:27.313Z,99631.73
2023-01-29T23:05:30.221Z,99618.29
2023-01-29T23:10:33.120Z,99620.89
2023-01-29T23:15:35.927Z,99595.36
2023-01-29T23:20:38.828Z,99587.08
2023-01-29T23:26:00.572Z,99571.73
2023-01-29T23:31:03.503Z,99559.30
2023-01-29T23:36:07.751Z,99544.14
2023-01-29T23:41:10.621Z,99533.25
2023-01-29T23:46:13.486Z,99526.02
2023-01-29T23:51:16.421Z,99510.17
2023-01-29T23:56:19.424Z,99493.63
